Hlavní strana
METAR-TAF:

METAR-TAF

Letiště :

Evansville, Indiana, Spojené státy americké

zeměpisná šířka: 38-02-35N, zeměpisná délka: 087-31-13W, výška: 127 m

Aktuální stav počasí

Zpráva byla vytvořena před 1 hodinou a 4 minutami, v 08:54 UTC
Severozápadní vítr 6 kt
Teplota 17°C
Vlhkost vzduchu 63%
Tlak 1020 hPa
Viditelnost: 16.1 km
Jasno

METAR: KEVV 300854Z AUTO 32006KT 10SM CLR 17/10 A3012 RMK AO2 SLP197 T01670100 53007

Čas: 04:58 (09:58 UTC)

Předpověď počasí

Zpráva byla vytvořena před 4 hodinami a 38 minutami, v 05:20 UTC
Předpověď platná od 30 v 06 UTC do 31 v 06 UTC
Severoseverozápadní vítr 6 kt
Viditelnost: 10 km
Jasno
Od 30 v 1500 UTC
Severní vítr 8 kt
Viditelnost: 10 km
Skoro jasno ve výšce 25000 ft

TAF: KEVV 300520Z 3006/3106 33006KT P6SM SKC FM301500 35008KT P6SM FEW250

Stav a předpovědi počasí z více než 4 000 letišť (zprávy METAR a TAF).

Červené a žluté tečky na mapě představují dostupné meteorologické stanice.

Když kurzor umístíte na tečku, zobrazí se název stanice.

Pak kliknutím zobrazíte stav a předpověď počasí.

Chcete-li změnit mapu, kliknutím na zelené tlačítko se znaménkem +mapu přiblížíte, kliknutím na zelené tlačítko se znaménkem – mapu oddálíte a kliknutím na zelené šipky přejdete na sousední mapy.


METAR-TAF: